Time;durP1;ratioP1;P1;durP2;ratioP2;P2;SDS_P1;SDS_P2;PMS_P1;PMS_P2;Temp;Humidity;BMP_temperature;BMP_pressure;BME280_temperature;BME280_humidity;BME280_pressure;Samples;Min_cycle;Max_cycle;Signal;HPM_P1;HPM_P2
2021/10/20 00:01:44;;;;;;;11.97;7.87;;;9.60;99.90;;;;;;5109204;28;20740;-58
2021/10/20 00:04:11;;;;;;;13.53;7.93;;;9.50;99.90;;;;;;5112436;28;20452;-58
2021/10/20 00:06:38;;;;;;;12.07;7.00;;;9.50;99.90;;;;;;5112198;28;20453;-58
2021/10/20 00:09:06;;;;;;;11.40;7.33;;;9.50;99.90;;;;;;5111297;28;20477;-57
2021/10/20 00:11:34;;;;;;;10.83;7.40;;;9.40;99.90;;;;;;5106395;28;21025;-57
2021/10/20 00:14:01;;;;;;;11.20;7.50;;;9.40;99.90;;;;;;5092035;28;20503;-58
2021/10/20 00:16:29;;;;;;;13.10;7.77;;;9.30;99.90;;;;;;5091904;28;20453;-58
2021/10/20 00:18:56;;;;;;;13.07;7.90;;;9.30;99.90;;;;;;5101600;28;20461;-58
2021/10/20 00:21:26;;;;;;;11.47;7.77;;;9.20;99.90;;;;;;5091026;28;20454;-57
2021/10/20 00:23:53;;;;;;;13.43;8.60;;;9.20;99.90;;;;;;5091876;28;20869;-58
2021/10/20 00:26:20;;;;;;;12.87;8.70;;;9.10;99.90;;;;;;5091911;28;20457;-58
2021/10/20 00:28:48;;;;;;;12.77;8.77;;;9.20;99.90;;;;;;5099826;28;20541;-58
2021/10/20 00:31:15;;;;;;;13.67;8.77;;;9.20;99.90;;;;;;5101204;28;20511;-58
2021/10/20 00:33:42;;;;;;;16.27;9.30;;;9.20;99.90;;;;;;5091753;28;20446;-58
2021/10/20 00:36:09;;;;;;;18.00;10.20;;;9.20;99.90;;;;;;5094694;28;20860;-58
2021/10/20 00:38:37;;;;;;;16.10;9.90;;;9.10;99.90;;;;;;5103599;28;20465;-58
2021/10/20 00:41:04;;;;;;;12.70;8.30;;;9.10;99.90;;;;;;5106044;28;20449;-58
2021/10/20 00:43:30;;;;;;;12.30;8.47;;;9.00;99.90;;;;;;5094929;28;20449;-58
2021/10/20 00:45:59;;;;;;;20.70;10.27;;;9.10;99.90;;;;;;5106287;28;20448;-58
2021/10/20 00:48:26;;;;;;;15.57;9.50;;;9.10;99.90;;;;;;5110254;28;20485;-58
2021/10/20 00:50:53;;;;;;;20.47;10.00;;;9.10;99.90;;;;;;5095270;28;20880;-59
2021/10/20 00:53:20;;;;;;;18.17;9.80;;;9.10;99.90;;;;;;5095369;28;20441;-58
2021/10/20 00:55:47;;;;;;;20.17;10.10;;;9.10;99.90;;;;;;5095236;28;20960;-58
2021/10/20 00:58:15;;;;;;;19.83;10.33;;;9.10;99.90;;;;;;5096653;28;20543;-58
2021/10/20 01:00:44;;;;;;;15.80;9.03;;;9.10;99.90;;;;;;5115414;28;20448;-58
2021/10/20 01:03:13;;;;;;;13.57;9.03;;;9.10;99.90;;;;;;5115628;28;20502;-59
2021/10/20 01:05:42;;;;;;;17.37;8.80;;;9.00;99.90;;;;;;5095110;28;20523;-58
2021/10/20 01:08:09;;;;;;;14.53;9.00;;;9.00;99.90;;;;;;5095020;28;20465;-59
2021/10/20 01:10:36;;;;;;;17.00;8.93;;;9.00;99.90;;;;;;5101661;28;20946;-58
2021/10/20 01:13:03;;;;;;;11.90;7.93;;;9.00;99.90;;;;;;5086693;28;20449;-58
2021/10/20 01:15:30;;;;;;;12.73;7.70;;;8.90;99.90;;;;;;5095186;28;20526;-58
2021/10/20 01:17:57;;;;;;;14.47;8.10;;;8.80;99.90;;;;;;5095147;28;20980;-58
2021/10/20 01:20:29;;;;;;;11.00;7.77;;;8.80;99.90;;;;;;5110293;28;20449;-57
2021/10/20 01:22:58;;;;;;;13.37;7.97;;;8.70;99.90;;;;;;5094876;28;20996;-58
2021/10/20 01:25:25;;;;;;;15.50;7.57;;;8.60;99.90;;;;;;5103272;28;20513;-58
2021/10/20 01:27:52;;;;;;;11.57;7.77;;;8.60;99.90;;;;;;5096601;28;20453;-58
2021/10/20 01:30:20;;;;;;;13.57;7.97;;;8.60;99.90;;;;;;5112766;28;20526;-58
2021/10/20 01:32:46;;;;;;;15.17;8.80;;;8.60;99.90;;;;;;5115044;28;20450;-58
2021/10/20 01:35:13;;;;;;;11.40;7.50;;;8.40;99.90;;;;;;5115257;28;20871;-58
2021/10/20 01:37:42;;;;;;;13.80;8.33;;;8.40;99.90;;;;;;5114835;28;20445;-58
2021/10/20 01:40:12;;;;;;;14.03;8.50;;;8.60;99.90;;;;;;5098200;28;20491;-58
2021/10/20 01:42:39;;;;;;;11.83;6.87;;;8.50;99.90;;;;;;5088158;28;20454;-58
2021/10/20 01:45:09;;;;;;;15.03;8.30;;;8.50;99.90;;;;;;5074201;28;20507;-58
2021/10/20 01:47:36;;;;;;;14.10;8.07;;;8.60;99.90;;;;;;5073829;28;20553;-58
2021/10/20 01:50:04;;;;;;;11.23;7.43;;;8.60;99.90;;;;;;5089345;28;20487;-58
2021/10/20 01:52:31;;;;;;;10.77;7.53;;;8.70;99.90;;;;;;5073824;28;20504;-58
2021/10/20 01:54:58;;;;;;;13.27;8.27;;;8.60;99.90;;;;;;5083487;28;20498;-58
2021/10/20 01:57:27;;;;;;;10.50;7.43;;;8.70;99.90;;;;;;5087666;28;21156;-58
2021/10/20 01:59:54;;;;;;;11.73;7.50;;;8.70;99.90;;;;;;5098831;28;20542;-58
2021/10/20 02:02:21;;;;;;;12.53;7.43;;;8.60;99.90;;;;;;5093856;28;20448;-58
2021/10/20 02:04:48;;;;;;;9.40;6.70;;;8.70;99.90;;;;;;5094046;28;21008;-58
2021/10/20 02:07:15;;;;;;;11.90;7.23;;;8.70;99.90;;;;;;5114220;28;20449;-58
2021/10/20 02:09:43;;;;;;;10.20;7.43;;;8.70;99.90;;;;;;5101588;28;20538;-59
2021/10/20 02:12:10;;;;;;;10.93;7.83;;;8.80;99.90;;;;;;5093261;28;20450;-58
2021/10/20 02:14:39;;;;;;;12.30;7.50;;;8.50;99.90;;;;;;5093864;28;20479;-58
2021/10/20 02:17:07;;;;;;;11.30;7.33;;;8.50;99.90;;;;;;5094003;28;20442;-58
2021/10/20 02:19:34;;;;;;;11.37;7.33;;;8.50;99.90;;;;;;5104521;28;20830;-58
2021/10/20 02:22:02;;;;;;;10.40;7.30;;;8.50;99.90;;;;;;5113968;28;20449;-58
2021/10/20 02:24:29;;;;;;;12.47;7.20;;;8.40;99.90;;;;;;5113878;28;20447;-58
2021/10/20 02:26:56;;;;;;;9.37;6.60;;;8.40;99.90;;;;;;5104866;28;20503;-58
2021/10/20 02:29:23;;;;;;;10.50;6.90;;;8.50;99.90;;;;;;5102326;28;20895;-58
2021/10/20 02:31:51;;;;;;;12.83;6.97;;;8.50;99.90;;;;;;5109059;28;20454;-58
2021/10/20 02:34:20;;;;;;;10.53;7.40;;;8.40;99.90;;;;;;5093423;28;20504;-58
2021/10/20 02:36:48;;;;;;;13.70;10.30;;;8.20;99.90;;;;;;5093527;28;20445;-58
2021/10/20 02:39:15;;;;;;;9.47;6.93;;;8.30;99.90;;;;;;5093809;28;20469;-58
2021/10/20 02:41:42;;;;;;;10.20;6.47;;;8.20;99.90;;;;;;5092603;28;20442;-58
2021/10/20 02:44:09;;;;;;;11.27;6.57;;;8.20;99.90;;;;;;5104155;28;20867;-58
2021/10/20 02:46:36;;;;;;;11.37;7.40;;;8.30;99.90;;;;;;5104509;28;20450;-58
2021/10/20 02:49:05;;;;;;;10.77;6.63;;;8.30;99.90;;;;;;5110986;28;20503;-60
2021/10/20 02:51:32;;;;;;;10.27;7.03;;;8.30;99.90;;;;;;5118780;28;20499;-58
2021/10/20 02:53:59;;;;;;;10.10;6.70;;;8.30;99.90;;;;;;5113522;28;20452;-58
2021/10/20 02:56:27;;;;;;;11.83;7.33;;;8.10;99.90;;;;;;5113604;28;20445;-57
2021/10/20 02:58:54;;;;;;;10.13;6.70;;;8.20;99.90;;;;;;5111412;22;20554;-52
2021/10/20 03:01:21;;;;;;;10.57;6.40;;;8.20;99.90;;;;;;5078801;28;20445;-54
2021/10/20 03:03:48;;;;;;;9.60;6.97;;;8.20;99.90;;;;;;5092595;28;20446;-53
2021/10/20 03:06:18;;;;;;;9.53;6.67;;;8.30;99.90;;;;;;5092796;28;20939;-53
2021/10/20 03:08:45;;;;;;;12.57;7.50;;;8.20;99.90;;;;;;5089725;28;20553;-53
2021/10/20 03:11:12;;;;;;;14.77;7.30;;;8.20;99.90;;;;;;5071867;28;20537;-53
2021/10/20 03:13:39;;;;;;;9.63;6.73;;;8.20;99.90;;;;;;5072956;28;20446;-54
2021/10/20 03:16:07;;;;;;;14.33;7.43;;;8.20;99.90;;;;;;5092577;28;20449;-52
2021/10/20 03:18:34;;;;;;;11.67;7.57;;;8.20;99.90;;;;;;5091854;28;20511;-53
2021/10/20 03:21:01;;;;;;;13.00;7.67;;;8.00;99.90;;;;;;5052133;28;20493;-54
2021/10/20 03:23:30;;;;;;;13.07;7.57;;;8.00;99.90;;;;;;5052107;28;20451;-53
2021/10/20 03:25:57;;;;;;;11.60;8.00;;;8.00;99.90;;;;;;5052464;28;21151;-53
2021/10/20 03:28:24;;;;;;;11.17;7.70;;;7.90;99.90;;;;;;5072284;28;20873;-53
2021/10/20 03:30:51;;;;;;;11.90;7.03;;;7.80;99.90;;;;;;5072618;28;20895;-53
2021/10/20 03:33:18;;;;;;;12.30;8.33;;;7.70;99.90;;;;;;5072050;28;20451;-54
2021/10/20 03:35:45;;;;;;;11.40;7.47;;;7.80;99.90;;;;;;5071686;28;20452;-53
2021/10/20 03:38:12;;;;;;;11.20;7.13;;;7.90;99.90;;;;;;5071851;28;20458;-52
2021/10/20 03:40:43;;;;;;;14.80;7.87;;;7.90;99.90;;;;;;5072654;28;20471;-52
2021/10/20 03:43:10;;;;;;;13.30;7.40;;;8.00;99.90;;;;;;5072264;28;21018;-53
2021/10/20 03:45:37;;;;;;;9.33;6.23;;;8.00;99.90;;;;;;5071990;28;20457;-53
2021/10/20 03:48:04;;;;;;;11.73;7.80;;;7.80;99.90;;;;;;5071804;28;20452;-53
2021/10/20 03:50:32;;;;;;;12.13;7.10;;;7.80;99.90;;;;;;5070772;28;20485;-53
2021/10/20 03:52:59;;;;;;;10.60;7.50;;;7.80;99.90;;;;;;5071585;28;20943;-53
2021/10/20 03:55:26;;;;;;;13.70;8.43;;;7.90;99.90;;;;;;5071790;28;20455;-54
2021/10/20 03:57:54;;;;;;;17.70;8.93;;;7.80;99.90;;;;;;5071726;28;20449;-52
2021/10/20 04:00:21;;;;;;;14.83;8.30;;;7.70;99.90;;;;;;5071145;28;20480;-53
2021/10/20 04:02:48;;;;;;;12.10;7.70;;;7.70;99.90;;;;;;5071753;28;20454;-54
2021/10/20 04:05:16;;;;;;;12.70;8.00;;;7.80;99.90;;;;;;5071332;28;20900;-53
2021/10/20 04:07:44;;;;;;;14.00;8.37;;;7.80;99.90;;;;;;5071261;28;20504;-52
2021/10/20 04:10:15;;;;;;;15.40;7.97;;;7.80;99.90;;;;;;5070217;28;20482;-52
2021/10/20 04:12:43;;;;;;;13.93;7.80;;;7.80;99.90;;;;;;5071605;28;20847;-54
2021/10/20 04:15:13;;;;;;;14.33;8.27;;;7.80;99.90;;;;;;5071657;28;20451;-53
2021/10/20 04:17:40;;;;;;;15.93;8.43;;;7.90;99.90;;;;;;5071202;28;20461;-53
2021/10/20 04:20:09;;;;;;;13.83;7.73;;;7.80;99.90;;;;;;5071407;28;20527;-52
2021/10/20 04:22:36;;;;;;;13.53;8.07;;;7.60;99.90;;;;;;5071330;28;20507;-54
2021/10/20 04:25:03;;;;;;;12.80;8.70;;;7.60;99.90;;;;;;5070772;28;20954;-52
2021/10/20 04:27:31;;;;;;;15.73;8.20;;;7.60;99.90;;;;;;5078902;28;20832;-52
2021/10/20 04:29:59;;;;;;;14.47;9.07;;;7.60;99.90;;;;;;5067086;28;20486;-52
2021/10/20 04:32:28;;;;;;;15.80;8.73;;;7.70;99.90;;;;;;5071089;28;20482;-52
2021/10/20 04:34:55;;;;;;;15.17;10.10;;;7.70;99.90;;;;;;5071246;28;20449;-52
2021/10/20 04:37:25;;;;;;;19.13;15.43;;;7.70;99.90;;;;;;5071231;28;20443;-52
2021/10/20 04:39:56;;;;;;;24.83;16.17;;;7.50;99.90;;;;;;5071279;28;20474;-52
2021/10/20 04:42:24;;;;;;;25.13;16.70;;;7.40;99.90;;;;;;5071150;28;20456;-52
2021/10/20 04:44:52;;;;;;;19.53;13.67;;;7.50;99.90;;;;;;5071141;28;20945;-52
2021/10/20 04:47:19;;;;;;;17.90;12.30;;;7.60;99.90;;;;;;5070979;28;20446;-52
2021/10/20 04:49:47;;;;;;;19.10;12.10;;;7.60;99.90;;;;;;5071328;28;20554;-52
2021/10/20 04:52:16;;;;;;;17.60;11.93;;;7.60;99.90;;;;;;5070999;28;20512;-52
2021/10/20 04:54:44;;;;;;;17.93;11.27;;;7.60;99.90;;;;;;5069931;28;20447;-52
2021/10/20 04:57:11;;;;;;;16.20;12.37;;;7.60;99.90;;;;;;5070712;28;20451;-52
2021/10/20 04:59:38;;;;;;;14.63;10.97;;;7.70;99.90;;;;;;5070127;28;20474;-52
2021/10/20 05:02:05;;;;;;;17.90;11.90;;;7.60;99.90;;;;;;5068775;28;20512;-52
2021/10/20 05:04:33;;;;;;;18.37;12.80;;;7.60;99.90;;;;;;5069907;28;20855;-52
2021/10/20 05:07:02;;;;;;;20.73;13.47;;;7.50;99.90;;;;;;5070927;28;20453;-52
2021/10/20 05:09:29;;;;;;;18.60;12.67;;;7.20;99.90;;;;;;5070827;28;20462;-53
2021/10/20 05:11:56;;;;;;;18.13;12.57;;;7.00;99.90;;;;;;5070365;28;21005;-53
2021/10/20 05:14:23;;;;;;;18.33;12.60;;;7.00;99.90;;;;;;5070119;28;20450;-52
2021/10/20 05:16:51;;;;;;;17.30;11.30;;;7.00;99.90;;;;;;5073090;28;20960;-52
2021/10/20 05:19:19;;;;;;;17.23;10.50;;;7.20;99.90;;;;;;5070927;28;20972;-52
2021/10/20 05:21:46;;;;;;;17.33;10.70;;;7.30;99.90;;;;;;5071995;28;20442;-53
2021/10/20 05:24:14;;;;;;;15.30;10.43;;;7.40;99.90;;;;;;5074604;28;20464;-53
2021/10/20 05:26:42;;;;;;;18.03;11.00;;;7.40;99.90;;;;;;5074453;28;20446;-53
2021/10/20 05:29:09;;;;;;;19.67;12.17;;;7.40;99.90;;;;;;5074599;28;20520;-53
2021/10/20 05:31:36;;;;;;;17.17;11.80;;;7.30;99.90;;;;;;5073677;28;20484;-53
2021/10/20 05:34:03;;;;;;;18.20;11.80;;;7.30;99.90;;;;;;5070932;28;20463;-53
2021/10/20 05:36:30;;;;;;;19.27;11.10;;;7.20;99.90;;;;;;5072597;28;20921;-53
2021/10/20 05:38:57;;;;;;;17.90;10.77;;;7.20;99.90;;;;;;5073150;28;20479;-52
2021/10/20 05:41:25;;;;;;;16.93;11.03;;;7.20;99.90;;;;;;5068203;28;20949;-54
2021/10/20 05:43:52;;;;;;;17.97;10.97;;;7.20;99.90;;;;;;5073356;28;20454;-53
2021/10/20 05:46:19;;;;;;;17.83;11.60;;;7.20;99.90;;;;;;5077615;28;20895;-53
2021/10/20 05:48:46;;;;;;;22.13;11.10;;;7.20;99.90;;;;;;5076232;28;20996;-53
2021/10/20 05:51:13;;;;;;;16.70;10.67;;;7.10;99.90;;;;;;5080259;28;20528;-54
2021/10/20 05:53:40;;;;;;;17.47;10.60;;;7.10;99.90;;;;;;5092422;28;20450;-53
2021/10/20 05:56:07;;;;;;;18.17;9.47;;;7.00;99.90;;;;;;5093846;28;20507;-53
2021/10/20 05:58:35;;;;;;;14.87;9.07;;;7.10;99.90;;;;;;5086187;28;20446;-53
2021/10/20 06:01:02;;;;;;;12.83;8.40;;;7.10;99.90;;;;;;5091288;28;20442;-55
2021/10/20 06:03:29;;;;;;;14.50;8.30;;;7.10;99.90;;;;;;5073431;28;20442;-54
2021/10/20 06:05:56;;;;;;;11.63;7.67;;;7.10;99.90;;;;;;5073316;28;20930;-54
2021/10/20 06:08:23;;;;;;;11.20;8.20;;;7.20;99.90;;;;;;5073487;28;20507;-54
2021/10/20 06:10:50;;;;;;;19.10;9.60;;;7.20;99.90;;;;;;5072945;28;21028;-54
2021/10/20 06:13:17;;;;;;;13.10;8.30;;;7.20;99.90;;;;;;5073356;28;20443;-54
2021/10/20 06:15:49;;;;;;;12.37;7.47;;;7.30;99.90;;;;;;5077910;28;20447;-53
2021/10/20 06:18:16;;;;;;;11.17;8.20;;;7.30;99.90;;;;;;5073847;28;20465;-54
2021/10/20 06:20:43;;;;;;;16.03;9.73;;;7.50;99.90;;;;;;5072826;28;20972;-53
2021/10/20 06:23:11;;;;;;;19.00;11.27;;;7.40;99.90;;;;;;5073153;28;20460;-54
2021/10/20 06:25:41;;;;;;;19.07;11.73;;;7.40;99.90;;;;;;5073663;28;20477;-54
2021/10/20 06:28:08;;;;;;;20.90;12.20;;;7.40;99.90;;;;;;5073597;28;20447;-54
2021/10/20 06:30:35;;;;;;;17.03;11.60;;;7.50;99.90;;;;;;5073263;28;20490;-53
2021/10/20 06:33:04;;;;;;;17.00;11.20;;;7.60;99.90;;;;;;5072411;28;20447;-53
2021/10/20 06:35:31;;;;;;;18.38;13.25;;;7.80;99.90;;;;;;5060035;28;20470;-52
2021/10/20 06:38:00;;;;;;;17.67;11.70;;;8.00;99.90;;;;;;5069216;28;20705;-54
2021/10/20 06:40:27;;;;;;;27.90;17.87;;;8.00;99.90;;;;;;5072065;28;20986;-54
2021/10/20 06:42:55;;;;;;;25.87;15.13;;;8.10;99.90;;;;;;5072754;28;20443;-54
2021/10/20 06:45:22;;;;;;;19.20;12.50;;;8.10;99.90;;;;;;5073075;28;20453;-54
2021/10/20 06:47:49;;;;;;;22.20;13.43;;;8.10;99.90;;;;;;5071307;28;20468;-54
2021/10/20 06:50:18;;;;;;;20.30;12.63;;;8.30;99.90;;;;;;5071797;28;20462;-53
2021/10/20 06:52:45;;;;;;;20.93;12.80;;;8.40;99.90;;;;;;5072683;28;20635;-53
2021/10/20 06:55:12;;;;;;;25.53;12.60;;;8.50;99.90;;;;;;5088833;28;20506;-54
2021/10/20 06:57:41;;;;;;;24.97;11.57;;;8.70;99.90;;;;;;5081206;28;20504;-54
2021/10/20 07:00:10;;;;;;;18.20;11.40;;;8.70;99.90;;;;;;5074945;28;20470;-54
2021/10/20 07:02:37;;;;;;;17.23;11.57;;;8.90;99.90;;;;;;5072818;28;20496;-54
2021/10/20 07:05:05;;;;;;;19.40;10.97;;;9.00;99.90;;;;;;5085533;28;20449;-54
2021/10/20 07:07:33;;;;;;;16.97;11.63;;;9.20;99.90;;;;;;5089391;28;20551;-53
2021/10/20 07:10:01;;;;;;;19.33;12.20;;;9.20;99.90;;;;;;5092366;28;20470;-54
2021/10/20 07:12:30;;;;;;;15.63;11.07;;;9.30;99.90;;;;;;5074583;28;20514;-54
2021/10/20 07:14:58;;;;;;;18.80;11.93;;;9.50;99.90;;;;;;5082624;28;20573;-54
2021/10/20 07:17:25;;;;;;;20.80;13.23;;;9.60;99.90;;;;;;5089854;28;20529;-54
2021/10/20 07:19:52;;;;;;;18.47;12.10;;;9.70;99.90;;;;;;5072011;28;20983;-54
2021/10/20 07:22:19;;;;;;;19.27;12.57;;;9.80;99.90;;;;;;5071447;28;20580;-54
2021/10/20 07:24:47;;;;;;;20.07;13.00;;;10.00;99.90;;;;;;5073253;28;20455;-55
2021/10/20 07:27:14;;;;;;;16.77;11.30;;;10.40;99.90;;;;;;5079469;28;20870;-55
2021/10/20 07:29:45;;;;;;;18.50;11.40;;;10.60;99.90;;;;;;5072106;28;21083;-54
2021/10/20 07:32:13;;;;;;;19.80;11.30;;;10.80;99.90;;;;;;5071955;28;20887;-55
2021/10/20 07:34:40;;;;;;;19.33;11.10;;;11.00;99.90;;;;;;5072981;28;20447;-55
2021/10/20 07:37:06;;;;;;;20.30;11.40;;;11.20;99.90;;;;;;5086017;28;20450;-54
2021/10/20 07:39:35;;;;;;;17.23;11.10;;;11.40;99.90;;;;;;5081179;28;20515;-54
2021/10/20 07:42:03;;;;;;;18.13;10.77;;;11.70;99.90;;;;;;5073157;28;20494;-54
2021/10/20 07:44:31;;;;;;;20.00;12.43;;;12.00;99.90;;;;;;5070887;28;20501;-54
2021/10/20 07:46:58;;;;;;;18.60;12.40;;;12.10;99.90;;;;;;5071333;28;20458;-54
2021/10/20 07:49:25;;;;;;;20.90;12.40;;;12.20;99.90;;;;;;5071419;28;20467;-54
2021/10/20 07:51:56;;;;;;;16.00;11.20;;;12.30;99.90;;;;;;5088512;28;20527;-55
2021/10/20 07:54:24;;;;;;;15.30;10.50;;;12.40;99.90;;;;;;5091748;28;20450;-55
2021/10/20 07:56:51;;;;;;;13.40;9.47;;;12.30;99.90;;;;;;5092126;28;20451;-54
2021/10/20 07:59:20;;;;;;;14.60;10.20;;;12.40;99.90;;;;;;5075635;28;20479;-54
2021/10/20 08:01:47;;;;;;;14.90;9.80;;;12.30;99.90;;;;;;5071250;28;20443;-54
2021/10/20 08:04:14;;;;;;;15.10;10.17;;;12.20;99.90;;;;;;5073128;28;20450;-54
2021/10/20 08:06:42;;;;;;;17.93;11.10;;;12.30;99.90;;;;;;5081642;28;20451;-54
2021/10/20 08:09:09;;;;;;;17.33;11.60;;;12.40;99.90;;;;;;5071415;28;20475;-56
2021/10/20 08:11:36;;;;;;;15.13;10.60;;;12.50;99.90;;;;;;5071022;28;21006;-55
2021/10/20 08:14:04;;;;;;;14.10;10.60;;;12.60;99.90;;;;;;5071421;28;20504;-56
2021/10/20 08:16:32;;;;;;;17.07;11.70;;;12.80;99.90;;;;;;5071324;28;20450;-57
2021/10/20 08:18:59;;;;;;;18.07;12.13;;;12.80;99.90;;;;;;5071304;28;20524;-55
2021/10/20 08:21:26;;;;;;;19.50;12.43;;;12.80;99.90;;;;;;5083836;28;20475;-56
2021/10/20 08:23:53;;;;;;;16.50;11.37;;;12.70;99.90;;;;;;5091648;28;20446;-56
2021/10/20 08:26:20;;;;;;;16.07;11.80;;;12.80;99.90;;;;;;5091588;28;20481;-55
2021/10/20 08:28:47;;;;;;;19.73;12.40;;;12.80;99.90;;;;;;5088661;28;20466;-55
2021/10/20 08:31:14;;;;;;;24.77;15.07;;;12.90;99.90;;;;;;5070881;28;20505;-54
2021/10/20 08:33:43;;;;;;;16.70;11.90;;;12.80;99.90;;;;;;5071107;28;20508;-55
2021/10/20 08:36:10;;;;;;;14.90;9.50;;;12.90;99.90;;;;;;5084087;28;20487;-56
2021/10/20 08:38:37;;;;;;;14.80;9.83;;;13.20;99.90;;;;;;5087324;28;20446;-56
2021/10/20 08:41:05;;;;;;;11.20;7.87;;;13.60;99.90;;;;;;5086366;28;20503;-56
2021/10/20 08:43:32;;;;;;;14.13;7.23;;;13.60;99.90;;;;;;5084566;28;20450;-54
2021/10/20 08:45:59;;;;;;;9.77;6.23;;;13.80;99.90;;;;;;5071313;28;20540;-55
2021/10/20 08:48:30;;;;;;;7.63;5.53;;;14.20;99.90;;;;;;5070874;28;20509;-56
2021/10/20 08:51:01;;;;;;;7.70;5.17;;;14.60;99.90;;;;;;5070245;28;20482;-56
2021/10/20 08:53:28;;;;;;;5.57;4.37;;;14.90;99.90;;;;;;5071202;28;20451;-56
2021/10/20 08:55:55;;;;;;;4.83;3.77;;;15.60;99.90;;;;;;5072659;28;21050;-58
2021/10/20 08:58:24;;;;;;;4.80;4.17;;;16.30;99.90;;;;;;5074819;28;20450;-56
2021/10/20 09:00:51;;;;;;;6.50;4.40;;;16.50;99.90;;;;;;5075974;22;20545;-56
2021/10/20 09:03:18;;;;;;;6.57;4.80;;;16.90;99.90;;;;;;5054054;28;20509;-55
2021/10/20 09:05:45;;;;;;;4.57;4.10;;;17.00;99.90;;;;;;5054202;28;20456;-55
2021/10/20 09:08:14;;;;;;;5.60;4.70;;;17.30;99.90;;;;;;5053710;28;20828;-56
2021/10/20 09:10:41;;;;;;;6.90;5.30;;;17.50;99.90;;;;;;5053787;28;20541;-56
2021/10/20 09:13:08;;;;;;;4.63;4.23;;;17.60;99.90;;;;;;5053840;28;20490;-56
2021/10/20 09:15:37;;;;;;;4.93;4.43;;;18.00;99.90;;;;;;5053525;28;20455;-56
2021/10/20 09:18:07;;;;;;;5.47;4.47;;;18.10;99.90;;;;;;5034427;28;20448;-56
2021/10/20 09:20:36;;;;;;;4.83;4.27;;;18.30;99.90;;;;;;5043987;28;20476;-56
2021/10/20 09:23:08;;;;;;;4.80;3.93;;;18.20;99.90;;;;;;5052078;28;20519;-55
2021/10/20 09:25:43;;;;;;;6.60;4.47;;;18.40;99.90;;;;;;5053297;28;20452;-56
2021/10/20 09:28:12;;;;;;;4.73;3.90;;;18.80;99.90;;;;;;5042557;28;20878;-56
2021/10/20 09:30:42;;;;;;;7.30;5.27;;;18.70;99.90;;;;;;5053670;28;20898;-56
2021/10/20 09:33:09;;;;;;;5.70;5.03;;;18.80;99.90;;;;;;5053724;28;20529;-56
2021/10/20 09:35:37;;;;;;;6.60;4.73;;;18.80;99.90;;;;;;5053908;28;20455;-55
2021/10/20 09:38:05;;;;;;;5.00;4.50;;;19.00;99.90;;;;;;5053167;28;21038;-56
2021/10/20 09:40:38;;;;;;;8.50;4.37;;;18.80;99.90;;;;;;5052479;28;20896;-56
2021/10/20 09:43:09;;;;;;;16.13;5.37;;;18.60;99.90;;;;;;5052877;28;20490;-56
2021/10/20 09:45:37;;;;;;;7.77;5.57;;;18.90;99.90;;;;;;5053334;28;20528;-57
2021/10/20 09:48:17;;;;;;;4.60;4.20;;;18.80;99.90;;;;;;5053189;28;20475;-55
2021/10/20 09:51:05;;;;;;;5.13;4.63;;;19.40;99.90;;;;;;5053102;28;20474;-56
2021/10/20 09:53:34;;;;;;;6.80;4.70;;;19.60;99.90;;;;;;5053715;28;20501;-56
2021/10/20 09:56:02;;;;;;;6.63;4.87;;;19.50;99.90;;;;;;5053528;28;20439;-56
2021/10/20 09:58:33;;;;;;;5.37;4.87;;;19.30;99.90;;;;;;5053157;28;20444;-56
2021/10/20 10:01:01;;;;;;;4.87;4.37;;;19.60;99.90;;;;;;5052911;28;20566;-57
2021/10/20 10:03:29;;;;;;;7.00;4.10;;;19.90;99.90;;;;;;5053027;28;20455;-56
2021/10/20 10:05:56;;;;;;;5.53;5.03;;;20.00;99.90;;;;;;5053201;28;20937;-56
2021/10/20 10:08:23;;;;;;;3.87;3.57;;;20.50;99.90;;;;;;5053063;28;20456;-56
2021/10/20 10:10:52;;;;;;;4.03;3.63;;;21.00;99.90;;;;;;5052858;28;20521;-56
2021/10/20 10:13:24;;;;;;;6.70;3.70;;;21.00;99.90;;;;;;5053080;28;20491;-56
2021/10/20 10:15:55;;;;;;;6.73;4.00;;;21.40;99.90;;;;;;5052297;28;20505;-56
2021/10/20 10:18:24;;;;;;;5.00;3.77;;;21.70;99.90;;;;;;5053078;28;20447;-56
2021/10/20 10:20:51;;;;;;;6.70;4.13;;;21.50;99.90;;;;;;5052655;28;20533;-55
2021/10/20 10:23:21;;;;;;;4.33;3.93;;;21.50;99.90;;;;;;5052948;28;20497;-56
2021/10/20 10:25:57;;;;;;;5.73;3.83;;;21.50;99.90;;;;;;5052127;28;20513;-56
2021/10/20 10:28:25;;;;;;;6.17;5.03;;;21.40;99.90;;;;;;5041252;28;20527;-56
2021/10/20 10:30:55;;;;;;;9.43;5.80;;;21.20;99.90;;;;;;5051291;28;20911;-56
2021/10/20 10:33:23;;;;;;;7.80;6.00;;;20.70;99.90;;;;;;5052538;28;20886;-56
2021/10/20 10:36:11;;;;;;;8.13;5.87;;;20.30;99.90;;;;;;5052402;28;20524;-56
2021/10/20 10:38:40;;;;;;;5.73;4.90;;;19.80;99.90;;;;;;5052590;28;20448;-56
2021/10/20 10:41:35;;;;;;;6.50;5.13;;;19.50;99.90;;;;;;5052569;28;20885;-56
2021/10/20 10:44:16;;;;;;;7.10;4.90;;;19.20;99.90;;;;;;5016893;28;20455;-56
2021/10/20 10:47:09;;;;;;;5.20;4.70;;;19.00;99.90;;;;;;5051037;28;20466;-56
2021/10/20 10:49:39;;;;;;;5.53;5.03;;;19.00;99.90;;;;;;5051166;28;20883;-56
2021/10/20 10:52:17;;;;;;;6.77;5.10;;;18.50;99.90;;;;;;5052291;28;20934;-57
2021/10/20 10:54:56;;;;;;;7.90;5.40;;;18.40;99.90;;;;;;5052373;28;20546;-56
2021/10/20 10:57:23;;;;;;;8.00;4.70;;;18.30;99.90;;;;;;5052215;28;20451;-56
2021/10/20 10:59:54;;;;;;;5.90;4.80;;;18.20;99.90;;;;;;5051265;28;20548;-56
2021/10/20 11:02:46;;;;;;;9.53;5.93;;;18.50;99.90;;;;;;5051750;28;20462;-56
2021/10/20 11:05:14;;;;;;;10.47;5.10;;;18.60;99.90;;;;;;5051687;28;20452;-55
2021/10/20 11:07:44;;;;;;;7.30;5.87;;;18.60;99.90;;;;;;5052120;28;20527;-56
2021/10/20 11:10:12;;;;;;;5.83;5.23;;;18.60;99.90;;;;;;5051910;28;20466;-56
2021/10/20 11:12:39;;;;;;;8.10;5.50;;;18.80;99.90;;;;;;5051151;28;21008;-56
2021/10/20 11:15:07;;;;;;;8.23;6.13;;;18.80;99.90;;;;;;5051237;28;20486;-55
2021/10/20 11:17:34;;;;;;;8.73;6.17;;;18.90;99.90;;;;;;5052032;28;21023;-56
2021/10/20 11:20:07;;;;;;;7.80;6.53;;;18.80;99.90;;;;;;5051259;28;20973;-56
2021/10/20 11:22:35;;;;;;;9.33;5.90;;;19.00;99.90;;;;;;5051631;28;20961;-56
2021/10/20 11:25:06;;;;;;;8.47;6.03;;;19.20;99.90;;;;;;5051524;28;20435;-55
2021/10/20 11:27:34;;;;;;;7.43;5.53;;;19.30;99.90;;;;;;5050306;28;20444;-55
2021/10/20 11:30:02;;;;;;;8.50;5.63;;;19.30;99.90;;;;;;5051261;28;21048;-55
2021/10/20 11:32:29;;;;;;;7.03;5.67;;;19.30;99.90;;;;;;5048256;28;20476;-56
2021/10/20 11:34:56;;;;;;;7.53;6.50;;;19.40;99.90;;;;;;5031638;28;20444;-56
2021/10/20 11:37:26;;;;;;;7.63;5.90;;;19.40;99.90;;;;;;5031893;28;20494;-56
2021/10/20 11:39:55;;;;;;;9.53;5.90;;;19.70;99.90;;;;;;5031720;28;20469;-57
2021/10/20 11:42:24;;;;;;;9.60;5.63;;;19.70;99.90;;;;;;5031464;28;20445;-57
2021/10/20 11:44:52;;;;;;;7.40;5.70;;;19.80;99.90;;;;;;5036145;28;20964;-56
2021/10/20 11:47:20;;;;;;;6.17;4.80;;;19.80;99.90;;;;;;5050798;28;20455;-56
2021/10/20 11:49:49;;;;;;;7.80;5.40;;;19.70;99.90;;;;;;5051087;28;20911;-56
2021/10/20 11:52:18;;;;;;;7.50;5.30;;;19.60;99.90;;;;;;5047931;28;20487;-57
2021/10/20 11:54:47;;;;;;;7.30;4.60;;;19.70;99.90;;;;;;5043441;28;20954;-55
2021/10/20 11:57:17;;;;;;;5.73;4.70;;;19.70;99.90;;;;;;5034780;28;20527;-55
2021/10/20 11:59:44;;;;;;;5.57;4.60;;;19.60;99.90;;;;;;5047302;28;20475;-56
2021/10/20 12:02:12;;;;;;;5.22;4.72;;;19.70;99.90;;;;;;5048670;28;20501;-56
2021/10/20 12:04:40;;;;;;;5.57;4.97;;;19.60;99.90;;;;;;5049581;28;20651;-56
2021/10/20 12:07:10;;;;;;;6.10;4.20;;;19.60;99.90;;;;;;5051277;28;20447;-55
2021/10/20 12:09:41;;;;;;;4.97;4.47;;;19.70;99.90;;;;;;5051074;28;20885;-56
2021/10/20 12:12:11;;;;;;;7.03;4.80;;;19.60;99.90;;;;;;5049384;28;20579;-56
2021/10/20 12:14:40;;;;;;;4.93;4.30;;;19.70;99.90;;;;;;5051039;28;20540;-56
2021/10/20 12:17:08;;;;;;;6.00;4.40;;;19.70;99.90;;;;;;5050424;28;20577;-55
2021/10/20 12:19:37;;;;;;;5.20;4.27;;;19.90;99.90;;;;;;5051366;28;20468;-56
2021/10/20 12:22:06;;;;;;;9.50;4.23;;;19.90;99.90;;;;;;5050727;28;20478;-55
2021/10/20 12:24:35;;;;;;;5.50;4.20;;;19.90;99.90;;;;;;5051065;28;20456;-56
2021/10/20 12:27:05;;;;;;;7.13;4.20;;;19.90;99.90;;;;;;5050898;28;20505;-56
2021/10/20 12:29:39;;;;;;;6.27;4.17;;;20.10;99.90;;;;;;5050883;28;20981;-56
2021/10/20 12:32:08;;;;;;;5.13;4.30;;;20.10;99.90;;;;;;5053139;28;20448;-56
2021/10/20 12:34:36;;;;;;;4.83;3.63;;;20.10;99.90;;;;;;5054845;28;20869;-56
2021/10/20 12:37:04;;;;;;;4.60;3.17;;;20.00;99.90;;;;;;5055124;28;20460;-56
2021/10/20 12:39:33;;;;;;;4.63;3.70;;;19.90;99.90;;;;;;5054875;28;20554;-56
2021/10/20 12:42:03;;;;;;;4.70;4.23;;;20.00;99.90;;;;;;5036650;28;20539;-55
2021/10/20 12:44:34;;;;;;;5.33;3.50;;;20.10;99.90;;;;;;5035147;28;20535;-55
2021/10/20 12:47:06;;;;;;;4.30;3.30;;;20.20;99.90;;;;;;5035162;28;20440;-56
2021/10/20 12:49:37;;;;;;;8.33;4.70;;;20.40;99.90;;;;;;5038839;28;20468;-55